sensor_id;sensor_type;location;lat;lon;timestamp;temperature;humidity
24224;DHT22;12359;49.716;9.212;2023-06-14T00:00:18;14.70;99.90
24224;DHT22;12359;49.716;9.212;2023-06-14T00:02:43;14.70;1.00
24224;DHT22;12359;49.716;9.212;2023-06-14T00:05:09;14.70;14.00
24224;DHT22;12359;49.716;9.212;2023-06-14T00:07:41;14.60;99.90
24224;DHT22;12359;49.716;9.212;2023-06-14T00:10:11;14.60;99.90
24224;DHT22;12359;49.716;9.212;2023-06-14T00:12:38;14.50;1.00
24224;DHT22;12359;49.716;9.212;2023-06-14T00:15:05;14.40;99.90
24224;DHT22;12359;49.716;9.212;2023-06-14T00:17:31;14.40;99.90
24224;DHT22;12359;49.716;9.212;2023-06-14T00:20:00;14.30;1.00
24224;DHT22;12359;49.716;9.212;2023-06-14T00:22:25;14.30;99.90
24224;DHT22;12359;49.716;9.212;2023-06-14T00:24:54;14.20;99.90
24224;DHT22;12359;49.716;9.212;2023-06-14T00:27:19;14.10;99.90
24224;DHT22;12359;49.716;9.212;2023-06-14T00:29:45;14.20;56.20
24224;DHT22;12359;49.716;9.212;2023-06-14T00:32:11;14.00;30.30
24224;DHT22;12359;49.716;9.212;2023-06-14T00:34:37;14.00;1.00
24224;DHT22;12359;49.716;9.212;2023-06-14T00:37:02;14.10;1.00
24224;DHT22;12359;49.716;9.212;2023-06-14T00:39:28;14.10;99.90
24224;DHT22;12359;49.716;9.212;2023-06-14T00:41:54;14.00;1.00
24224;DHT22;12359;49.716;9.212;2023-06-14T00:44:19;14.00;1.00
24224;DHT22;12359;49.716;9.212;2023-06-14T00:46:46;14.00;1.00
24224;DHT22;12359;49.716;9.212;2023-06-14T00:49:14;13.90;1.00
24224;DHT22;12359;49.716;9.212;2023-06-14T00:51:41;13.80;99.90
24224;DHT22;12359;49.716;9.212;2023-06-14T00:54:07;13.70;1.00
24224;DHT22;12359;49.716;9.212;2023-06-14T00:56:33;13.80;1.00
24224;DHT22;12359;49.716;9.212;2023-06-14T00:58:59;13.70;41.90
24224;DHT22;12359;49.716;9.212;2023-06-14T01:01:25;13.70;99.90
24224;DHT22;12359;49.716;9.212;2023-06-14T01:03:50;13.70;99.90
24224;DHT22;12359;49.716;9.212;2023-06-14T01:11:30;13.60;1.00
24224;DHT22;12359;49.716;9.212;2023-06-14T01:14:00;13.50;99.90
24224;DHT22;12359;49.716;9.212;2023-06-14T01:16:27;13.40;99.90
24224;DHT22;12359;49.716;9.212;2023-06-14T01:18:54;13.40;1.00
24224;DHT22;12359;49.716;9.212;2023-06-14T01:21:25;13.40;4.60
24224;DHT22;12359;49.716;9.212;2023-06-14T01:23:52;13.30;99.90
24224;DHT22;12359;49.716;9.212;2023-06-14T01:26:21;13.20;99.90
24224;DHT22;12359;49.716;9.212;2023-06-14T01:28:48;13.20;99.90
24224;DHT22;12359;49.716;9.212;2023-06-14T01:31:18;13.30;99.90
24224;DHT22;12359;49.716;9.212;2023-06-14T01:33:45;13.30;99.90
24224;DHT22;12359;49.716;9.212;2023-06-14T01:36:12;13.20;99.90
24224;DHT22;12359;49.716;9.212;2023-06-14T01:38:39;13.20;1.00
24224;DHT22;12359;49.716;9.212;2023-06-14T01:41:06;13.20;99.90
24224;DHT22;12359;49.716;9.212;2023-06-14T01:43:32;13.20;99.90
24224;DHT22;12359;49.716;9.212;2023-06-14T01:46:00;13.20;99.90
24224;DHT22;12359;49.716;9.212;2023-06-14T01:48:26;13.20;99.90
24224;DHT22;12359;49.716;9.212;2023-06-14T01:50:52;13.00;99.90
24224;DHT22;12359;49.716;9.212;2023-06-14T01:53:18;13.10;99.90
24224;DHT22;12359;49.716;9.212;2023-06-14T01:55:44;13.10;99.90
24224;DHT22;12359;49.716;9.212;2023-06-14T01:58:10;13.10;99.90
24224;DHT22;12359;49.716;9.212;2023-06-14T02:00:36;13.00;99.90
24224;DHT22;12359;49.716;9.212;2023-06-14T02:03:02;13.00;99.90
24224;DHT22;12359;49.716;9.212;2023-06-14T02:05:29;13.00;99.90
24224;DHT22;12359;49.716;9.212;2023-06-14T02:07:55;12.90;1.00
24224;DHT22;12359;49.716;9.212;2023-06-14T02:10:21;12.90;99.90
24224;DHT22;12359;49.716;9.212;2023-06-14T02:12:47;12.90;1.00
24224;DHT22;12359;49.716;9.212;2023-06-14T02:15:13;12.80;1.00
24224;DHT22;12359;49.716;9.212;2023-06-14T02:17:48;12.80;1.00
24224;DHT22;12359;49.716;9.212;2023-06-14T02:20:15;12.80;39.50
24224;DHT22;12359;49.716;9.212;2023-06-14T02:22:41;12.60;99.90
24224;DHT22;12359;49.716;9.212;2023-06-14T02:25:08;12.60;99.90
24224;DHT22;12359;49.716;9.212;2023-06-14T02:27:34;12.50;1.00
24224;DHT22;12359;49.716;9.212;2023-06-14T02:30:00;12.40;14.20
24224;DHT22;12359;49.716;9.212;2023-06-14T02:32:26;12.40;49.40
24224;DHT22;12359;49.716;9.212;2023-06-14T02:34:54;12.30;53.70
24224;DHT22;12359;49.716;9.212;2023-06-14T02:37:20;12.30;92.20
24224;DHT22;12359;49.716;9.212;2023-06-14T02:39:46;12.30;91.00
24224;DHT22;12359;49.716;9.212;2023-06-14T02:42:12;12.20;99.90
24224;DHT22;12359;49.716;9.212;2023-06-14T02:44:37;12.20;99.90
24224;DHT22;12359;49.716;9.212;2023-06-14T02:47:04;12.10;99.90
24224;DHT22;12359;49.716;9.212;2023-06-14T02:49:30;12.10;99.90
24224;DHT22;12359;49.716;9.212;2023-06-14T02:51:56;12.10;99.90
24224;DHT22;12359;49.716;9.212;2023-06-14T02:54:22;12.10;99.90
24224;DHT22;12359;49.716;9.212;2023-06-14T02:56:47;12.00;99.90
24224;DHT22;12359;49.716;9.212;2023-06-14T02:59:13;12.00;99.90
24224;DHT22;12359;49.716;9.212;2023-06-14T03:01:39;12.10;99.90
24224;DHT22;12359;49.716;9.212;2023-06-14T03:04:07;12.10;99.90
24224;DHT22;12359;49.716;9.212;2023-06-14T03:06:33;12.10;99.90
24224;DHT22;12359;49.716;9.212;2023-06-14T03:08:59;12.10;99.90
24224;DHT22;12359;49.716;9.212;2023-06-14T03:11:26;12.10;99.90
24224;DHT22;12359;49.716;9.212;2023-06-14T03:13:53;12.00;99.90
24224;DHT22;12359;49.716;9.212;2023-06-14T03:16:19;12.00;99.90
24224;DHT22;12359;49.716;9.212;2023-06-14T03:18:46;12.00;99.90
24224;DHT22;12359;49.716;9.212;2023-06-14T03:21:11;12.00;99.90
24224;DHT22;12359;49.716;9.212;2023-06-14T03:23:37;12.10;99.90
24224;DHT22;12359;49.716;9.212;2023-06-14T03:26:02;12.10;99.90
24224;DHT22;12359;49.716;9.212;2023-06-14T03:28:28;12.10;99.90
24224;DHT22;12359;49.716;9.212;2023-06-14T03:30:54;12.10;99.80
24224;DHT22;12359;49.716;9.212;2023-06-14T03:33:20;12.10;99.90
24224;DHT22;12359;49.716;9.212;2023-06-14T03:35:46;12.10;99.90
24224;DHT22;12359;49.716;9.212;2023-06-14T03:38:12;12.10;99.90
24224;DHT22;12359;49.716;9.212;2023-06-14T03:40:37;12.10;99.90
24224;DHT22;12359;49.716;9.212;2023-06-14T03:43:03;12.00;99.90
24224;DHT22;12359;49.716;9.212;2023-06-14T03:45:29;12.00;99.90
24224;DHT22;12359;49.716;9.212;2023-06-14T03:47:55;12.00;99.90
24224;DHT22;12359;49.716;9.212;2023-06-14T03:50:21;12.00;99.90
24224;DHT22;12359;49.716;9.212;2023-06-14T03:52:48;12.00;99.90
24224;DHT22;12359;49.716;9.212;2023-06-14T03:55:14;12.00;99.90
24224;DHT22;12359;49.716;9.212;2023-06-14T03:57:41;12.00;99.90
24224;DHT22;12359;49.716;9.212;2023-06-14T04:00:09;12.00;99.90
24224;DHT22;12359;49.716;9.212;2023-06-14T04:02:35;11.90;99.90
24224;DHT22;12359;49.716;9.212;2023-06-14T04:05:02;11.90;99.90
24224;DHT22;12359;49.716;9.212;2023-06-14T04:07:28;12.00;99.90
24224;DHT22;12359;49.716;9.212;2023-06-14T04:09:55;12.10;99.90
24224;DHT22;12359;49.716;9.212;2023-06-14T04:12:21;12.20;99.90
24224;DHT22;12359;49.716;9.212;2023-06-14T04:14:46;12.20;99.90
24224;DHT22;12359;49.716;9.212;2023-06-14T04:17:12;12.30;99.90
24224;DHT22;12359;49.716;9.212;2023-06-14T04:19:38;12.50;99.90
24224;DHT22;12359;49.716;9.212;2023-06-14T04:22:03;12.60;99.90
24224;DHT22;12359;49.716;9.212;2023-06-14T04:24:29;12.70;66.50
24224;DHT22;12359;49.716;9.212;2023-06-14T04:26:58;12.80;36.80
24224;DHT22;12359;49.716;9.212;2023-06-14T04:29:25;12.90;1.00
24224;DHT22;12359;49.716;9.212;2023-06-14T04:31:53;13.00;1.00
24224;DHT22;12359;49.716;9.212;2023-06-14T04:34:19;13.10;99.90
24224;DHT22;12359;49.716;9.212;2023-06-14T04:36:44;13.20;99.90
24224;DHT22;12359;49.716;9.212;2023-06-14T04:39:19;13.40;99.90
24224;DHT22;12359;49.716;9.212;2023-06-14T04:41:46;13.50;99.90
24224;DHT22;12359;49.716;9.212;2023-06-14T04:44:13;13.60;99.90
24224;DHT22;12359;49.716;9.212;2023-06-14T04:46:39;13.80;3.20
24224;DHT22;12359;49.716;9.212;2023-06-14T04:49:14;14.00;99.90
24224;DHT22;12359;49.716;9.212;2023-06-14T04:51:45;14.20;99.90
24224;DHT22;12359;49.716;9.212;2023-06-14T04:54:11;14.30;99.90
24224;DHT22;12359;49.716;9.212;2023-06-14T04:56:41;14.40;99.90
24224;DHT22;12359;49.716;9.212;2023-06-14T04:59:08;14.40;1.00
24224;DHT22;12359;49.716;9.212;2023-06-14T05:01:34;14.40;99.90
24224;DHT22;12359;49.716;9.212;2023-06-14T05:04:01;14.50;99.90
24224;DHT22;12359;49.716;9.212;2023-06-14T05:06:28;14.50;99.90
24224;DHT22;12359;49.716;9.212;2023-06-14T05:08:54;14.50;99.90
24224;DHT22;12359;49.716;9.212;2023-06-14T05:11:20;14.70;99.90
24224;DHT22;12359;49.716;9.212;2023-06-14T05:13:46;14.90;1.00
24224;DHT22;12359;49.716;9.212;2023-06-14T05:16:12;15.00;99.90
24224;DHT22;12359;49.716;9.212;2023-06-14T05:18:38;15.20;99.90
24224;DHT22;12359;49.716;9.212;2023-06-14T05:21:05;15.40;1.00
24224;DHT22;12359;49.716;9.212;2023-06-14T05:23:31;15.50;99.90
24224;DHT22;12359;49.716;9.212;2023-06-14T05:25:57;15.80;99.90
24224;DHT22;12359;49.716;9.212;2023-06-14T05:28:23;16.00;21.20
24224;DHT22;12359;49.716;9.212;2023-06-14T05:30:49;16.20;99.90
24224;DHT22;12359;49.716;9.212;2023-06-14T05:33:15;16.50;49.90
24224;DHT22;12359;49.716;9.212;2023-06-14T05:35:41;16.80;99.90
24224;DHT22;12359;49.716;9.212;2023-06-14T05:38:06;16.90;1.00
24224;DHT22;12359;49.716;9.212;2023-06-14T05:40:33;17.30;1.00
24224;DHT22;12359;49.716;9.212;2023-06-14T05:42:59;17.60;99.90
24224;DHT22;12359;49.716;9.212;2023-06-14T05:45:24;17.80;1.00
24224;DHT22;12359;49.716;9.212;2023-06-14T05:47:50;17.80;99.90
24224;DHT22;12359;49.716;9.212;2023-06-14T05:50:16;18.10;99.90
24224;DHT22;12359;49.716;9.212;2023-06-14T05:52:42;18.30;17.00
24224;DHT22;12359;49.716;9.212;2023-06-14T05:55:08;18.70;1.00
24224;DHT22;12359;49.716;9.212;2023-06-14T05:57:34;18.90;99.90
24224;DHT22;12359;49.716;9.212;2023-06-14T05:59:59;19.00;99.90
24224;DHT22;12359;49.716;9.212;2023-06-14T06:02:25;19.20;99.90
24224;DHT22;12359;49.716;9.212;2023-06-14T06:04:51;19.30;99.90
24224;DHT22;12359;49.716;9.212;2023-06-14T06:07:16;19.40;99.90
24224;DHT22;12359;49.716;9.212;2023-06-14T06:09:42;19.10;99.90
24224;DHT22;12359;49.716;9.212;2023-06-14T06:12:08;19.00;99.90
24224;DHT22;12359;49.716;9.212;2023-06-14T06:14:34;19.10;99.90
24224;DHT22;12359;49.716;9.212;2023-06-14T06:17:00;19.20;99.90
24224;DHT22;12359;49.716;9.212;2023-06-14T06:19:25;19.50;99.90
24224;DHT22;12359;49.716;9.212;2023-06-14T06:21:51;19.70;99.90
24224;DHT22;12359;49.716;9.212;2023-06-14T06:24:17;20.00;99.90
24224;DHT22;12359;49.716;9.212;2023-06-14T06:26:42;20.30;99.90
24224;DHT22;12359;49.716;9.212;2023-06-14T06:29:08;20.80;66.90
24224;DHT22;12359;49.716;9.212;2023-06-14T06:31:34;21.40;36.50
24224;DHT22;12359;49.716;9.212;2023-06-14T06:33:59;21.80;1.00
24224;DHT22;12359;49.716;9.212;2023-06-14T06:36:25;22.20;1.00
24224;DHT22;12359;49.716;9.212;2023-06-14T06:38:51;22.40;1.00
24224;DHT22;12359;49.716;9.212;2023-06-14T06:41:16;22.90;1.00
24224;DHT22;12359;49.716;9.212;2023-06-14T06:43:42;23.20;1.00
24224;DHT22;12359;49.716;9.212;2023-06-14T06:46:08;23.60;1.00
24224;DHT22;12359;49.716;9.212;2023-06-14T06:48:33;24.20;1.00
24224;DHT22;12359;49.716;9.212;2023-06-14T06:50:59;24.80;1.00
24224;DHT22;12359;49.716;9.212;2023-06-14T06:53:25;24.70;1.00
24224;DHT22;12359;49.716;9.212;2023-06-14T06:55:50;25.10;1.00
24224;DHT22;12359;49.716;9.212;2023-06-14T06:58:16;25.60;99.90
24224;DHT22;12359;49.716;9.212;2023-06-14T07:00:42;26.00;99.90
24224;DHT22;12359;49.716;9.212;2023-06-14T07:03:07;26.00;99.90
24224;DHT22;12359;49.716;9.212;2023-06-14T07:05:33;26.30;99.90
24224;DHT22;12359;49.716;9.212;2023-06-14T07:08:00;26.80;99.90
24224;DHT22;12359;49.716;9.212;2023-06-14T07:10:26;26.90;99.90
24224;DHT22;12359;49.716;9.212;2023-06-14T07:12:52;27.00;99.90
24224;DHT22;12359;49.716;9.212;2023-06-14T07:15:17;26.00;99.90
24224;DHT22;12359;49.716;9.212;2023-06-14T07:17:43;25.60;99.90
24224;DHT22;12359;49.716;9.212;2023-06-14T07:20:09;25.30;99.90
24224;DHT22;12359;49.716;9.212;2023-06-14T07:22:41;25.40;99.90
24224;DHT22;12359;49.716;9.212;2023-06-14T07:25:11;25.90;99.90
24224;DHT22;12359;49.716;9.212;2023-06-14T07:27:41;26.20;99.90
24224;DHT22;12359;49.716;9.212;2023-06-14T07:30:08;25.90;99.90
24224;DHT22;12359;49.716;9.212;2023-06-14T07:32:33;26.30;99.90
24224;DHT22;12359;49.716;9.212;2023-06-14T07:34:59;26.90;99.90
24224;DHT22;12359;49.716;9.212;2023-06-14T07:37:25;27.40;99.90
24224;DHT22;12359;49.716;9.212;2023-06-14T07:39:50;27.60;99.90
24224;DHT22;12359;49.716;9.212;2023-06-14T07:42:16;27.60;99.90
24224;DHT22;12359;49.716;9.212;2023-06-14T07:44:42;28.20;99.90
24224;DHT22;12359;49.716;9.212;2023-06-14T07:47:07;28.20;99.90
24224;DHT22;12359;49.716;9.212;2023-06-14T07:49:33;28.00;99.90
24224;DHT22;12359;49.716;9.212;2023-06-14T07:51:59;27.40;99.90
24224;DHT22;12359;49.716;9.212;2023-06-14T07:54:24;27.80;99.90
24224;DHT22;12359;49.716;9.212;2023-06-14T07:56:52;28.10;99.90
24224;DHT22;12359;49.716;9.212;2023-06-14T07:59:18;28.00;99.90
24224;DHT22;12359;49.716;9.212;2023-06-14T08:01:43;28.40;99.90
24224;DHT22;12359;49.716;9.212;2023-06-14T08:04:16;28.10;99.90
24224;DHT22;12359;49.716;9.212;2023-06-14T08:06:42;27.40;99.90
24224;DHT22;12359;49.716;9.212;2023-06-14T08:09:12;27.50;99.90
24224;DHT22;12359;49.716;9.212;2023-06-14T08:11:38;27.40;99.90
24224;DHT22;12359;49.716;9.212;2023-06-14T08:14:04;27.50;99.90
24224;DHT22;12359;49.716;9.212;2023-06-14T08:16:29;27.20;99.90
24224;DHT22;12359;49.716;9.212;2023-06-14T08:18:55;27.00;99.90
24224;DHT22;12359;49.716;9.212;2023-06-14T08:21:21;26.90;99.90
24224;DHT22;12359;49.716;9.212;2023-06-14T08:23:47;26.90;99.90
24224;DHT22;12359;49.716;9.212;2023-06-14T08:26:13;27.10;99.90
24224;DHT22;12359;49.716;9.212;2023-06-14T08:28:38;27.20;99.90
24224;DHT22;12359;49.716;9.212;2023-06-14T08:31:04;26.90;99.90
24224;DHT22;12359;49.716;9.212;2023-06-14T08:33:31;27.00;99.90
24224;DHT22;12359;49.716;9.212;2023-06-14T08:36:00;27.40;99.90
24224;DHT22;12359;49.716;9.212;2023-06-14T08:38:25;26.80;99.90
24224;DHT22;12359;49.716;9.212;2023-06-14T08:40:52;27.00;99.90
24224;DHT22;12359;49.716;9.212;2023-06-14T08:43:22;27.40;99.90
24224;DHT22;12359;49.716;9.212;2023-06-14T08:45:48;27.40;99.90
24224;DHT22;12359;49.716;9.212;2023-06-14T08:48:18;27.90;99.90
24224;DHT22;12359;49.716;9.212;2023-06-14T08:50:47;28.50;99.90
24224;DHT22;12359;49.716;9.212;2023-06-14T08:53:14;28.50;99.90
24224;DHT22;12359;49.716;9.212;2023-06-14T08:55:45;28.50;99.90
24224;DHT22;12359;49.716;9.212;2023-06-14T08:58:13;28.30;99.90
24224;DHT22;12359;49.716;9.212;2023-06-14T09:00:40;28.10;99.90
24224;DHT22;12359;49.716;9.212;2023-06-14T09:03:08;28.20;99.90
24224;DHT22;12359;49.716;9.212;2023-06-14T09:05:38;27.40;99.90
24224;DHT22;12359;49.716;9.212;2023-06-14T09:08:04;27.30;99.90
24224;DHT22;12359;49.716;9.212;2023-06-14T09:10:31;27.30;99.90
24224;DHT22;12359;49.716;9.212;2023-06-14T09:13:03;26.90;99.90
24224;DHT22;12359;49.716;9.212;2023-06-14T09:15:29;26.60;99.90
24224;DHT22;12359;49.716;9.212;2023-06-14T09:17:55;25.90;99.90
24224;DHT22;12359;49.716;9.212;2023-06-14T09:20:21;26.20;99.90
24224;DHT22;12359;49.716;9.212;2023-06-14T09:22:49;25.70;99.90
24224;DHT22;12359;49.716;9.212;2023-06-14T09:25:15;24.90;99.90
24224;DHT22;12359;49.716;9.212;2023-06-14T09:27:41;24.50;99.90
24224;DHT22;12359;49.716;9.212;2023-06-14T09:30:09;24.30;99.90
24224;DHT22;12359;49.716;9.212;2023-06-14T09:32:39;24.60;99.90
24224;DHT22;12359;49.716;9.212;2023-06-14T09:35:08;24.50;99.90
24224;DHT22;12359;49.716;9.212;2023-06-14T09:37:34;24.50;99.90
24224;DHT22;12359;49.716;9.212;2023-06-14T09:40:01;25.20;99.90
24224;DHT22;12359;49.716;9.212;2023-06-14T09:42:27;26.00;99.90
24224;DHT22;12359;49.716;9.212;2023-06-14T09:44:55;26.80;99.90
24224;DHT22;12359;49.716;9.212;2023-06-14T09:47:21;26.70;99.90
24224;DHT22;12359;49.716;9.212;2023-06-14T09:49:48;26.20;99.90
24224;DHT22;12359;49.716;9.212;2023-06-14T09:52:19;26.20;99.90
24224;DHT22;12359;49.716;9.212;2023-06-14T09:54:46;26.80;99.90
24224;DHT22;12359;49.716;9.212;2023-06-14T09:57:14;26.60;99.90
24224;DHT22;12359;49.716;9.212;2023-06-14T09:59:42;26.30;99.90
24224;DHT22;12359;49.716;9.212;2023-06-14T10:02:14;26.20;99.90
24224;DHT22;12359;49.716;9.212;2023-06-14T10:04:46;26.60;99.90
24224;DHT22;12359;49.716;9.212;2023-06-14T10:07:19;26.10;99.90
24224;DHT22;12359;49.716;9.212;2023-06-14T10:09:47;25.10;99.90
24224;DHT22;12359;49.716;9.212;2023-06-14T10:12:17;24.90;99.90
24224;DHT22;12359;49.716;9.212;2023-06-14T10:14:49;24.80;99.90
24224;DHT22;12359;49.716;9.212;2023-06-14T10:17:22;25.00;99.90
24224;DHT22;12359;49.716;9.212;2023-06-14T10:22:51;25.40;99.90
24224;DHT22;12359;49.716;9.212;2023-06-14T10:25:31;26.20;99.90
24224;DHT22;12359;49.716;9.212;2023-06-14T10:31:12;27.00;99.90
24224;DHT22;12359;49.716;9.212;2023-06-14T10:33:40;27.60;99.90
24224;DHT22;12359;49.716;9.212;2023-06-14T10:39:04;27.80;99.90
24224;DHT22;12359;49.716;9.212;2023-06-14T10:41:30;28.10;99.90
24224;DHT22;12359;49.716;9.212;2023-06-14T10:46:53;28.70;99.90
24224;DHT22;12359;49.716;9.212;2023-06-14T10:49:20;29.20;99.90
24224;DHT22;12359;49.716;9.212;2023-06-14T10:51:50;29.60;99.90
24224;DHT22;12359;49.716;9.212;2023-06-14T10:54:17;28.50;99.90
24224;DHT22;12359;49.716;9.212;2023-06-14T10:56:53;27.80;99.90
24224;DHT22;12359;49.716;9.212;2023-06-14T10:59:20;27.30;99.90
24224;DHT22;12359;49.716;9.212;2023-06-14T11:04:50;27.20;99.90
24224;DHT22;12359;49.716;9.212;2023-06-14T11:10:28;27.20;99.90
24224;DHT22;12359;49.716;9.212;2023-06-14T11:12:59;27.80;99.90
24224;DHT22;12359;49.716;9.212;2023-06-14T11:15:29;28.30;99.90
24224;DHT22;12359;49.716;9.212;2023-06-14T11:17:56;28.80;99.90
24224;DHT22;12359;49.716;9.212;2023-06-14T11:20:25;28.70;99.90
24224;DHT22;12359;49.716;9.212;2023-06-14T11:22:52;28.30;99.90
24224;DHT22;12359;49.716;9.212;2023-06-14T11:25:18;27.90;99.90
24224;DHT22;12359;49.716;9.212;2023-06-14T11:27:44;27.60;99.90
24224;DHT22;12359;49.716;9.212;2023-06-14T11:30:11;27.60;99.90
24224;DHT22;12359;49.716;9.212;2023-06-14T11:32:37;27.70;99.90
24224;DHT22;12359;49.716;9.212;2023-06-14T11:35:04;27.60;99.90
24224;DHT22;12359;49.716;9.212;2023-06-14T11:37:30;27.30;99.90
24224;DHT22;12359;49.716;9.212;2023-06-14T11:39:59;27.20;99.90
24224;DHT22;12359;49.716;9.212;2023-06-14T11:42:28;27.40;99.90
24224;DHT22;12359;49.716;9.212;2023-06-14T11:44:54;27.60;99.90
24224;DHT22;12359;49.716;9.212;2023-06-14T11:47:20;28.10;99.90
24224;DHT22;12359;49.716;9.212;2023-06-14T11:49:47;28.70;99.90
24224;DHT22;12359;49.716;9.212;2023-06-14T11:52:13;28.30;99.90
24224;DHT22;12359;49.716;9.212;2023-06-14T11:54:39;27.50;99.90
24224;DHT22;12359;49.716;9.212;2023-06-14T11:57:07;26.80;99.90
24224;DHT22;12359;49.716;9.212;2023-06-14T11:59:42;26.30;99.90
24224;DHT22;12359;49.716;9.212;2023-06-14T12:02:10;26.00;99.90
24224;DHT22;12359;49.716;9.212;2023-06-14T12:04:41;26.30;99.90
24224;DHT22;12359;49.716;9.212;2023-06-14T12:07:14;26.80;99.90
24224;DHT22;12359;49.716;9.212;2023-06-14T12:12:28;27.30;99.90
24224;DHT22;12359;49.716;9.212;2023-06-14T12:14:55;27.20;99.90
24224;DHT22;12359;49.716;9.212;2023-06-14T12:17:22;27.00;99.90
24224;DHT22;12359;49.716;9.212;2023-06-14T12:19:48;26.90;99.90
24224;DHT22;12359;49.716;9.212;2023-06-14T12:22:16;26.90;99.90
24224;DHT22;12359;49.716;9.212;2023-06-14T12:24:45;27.20;99.90
24224;DHT22;12359;49.716;9.212;2023-06-14T12:27:11;26.70;99.90
24224;DHT22;12359;49.716;9.212;2023-06-14T12:29:42;26.60;99.90
24224;DHT22;12359;49.716;9.212;2023-06-14T12:32:11;26.80;99.90
24224;DHT22;12359;49.716;9.212;2023-06-14T12:34:37;26.80;99.90
24224;DHT22;12359;49.716;9.212;2023-06-14T12:37:02;26.50;99.90
24224;DHT22;12359;49.716;9.212;2023-06-14T12:39:30;26.20;99.90
24224;DHT22;12359;49.716;9.212;2023-06-14T12:41:57;26.00;99.90
24224;DHT22;12359;49.716;9.212;2023-06-14T12:44:23;25.80;99.90
24224;DHT22;12359;49.716;9.212;2023-06-14T12:46:49;26.10;99.90
24224;DHT22;12359;49.716;9.212;2023-06-14T12:49:19;26.50;99.90
24224;DHT22;12359;49.716;9.212;2023-06-14T12:51:45;26.90;99.90
24224;DHT22;12359;49.716;9.212;2023-06-14T12:54:11;27.00;99.90
24224;DHT22;12359;49.716;9.212;2023-06-14T12:56:37;26.90;99.90
24224;DHT22;12359;49.716;9.212;2023-06-14T12:59:03;26.70;99.90
24224;DHT22;12359;49.716;9.212;2023-06-14T13:01:29;26.70;99.90
24224;DHT22;12359;49.716;9.212;2023-06-14T13:03:54;27.10;99.90
24224;DHT22;12359;49.716;9.212;2023-06-14T13:06:21;27.50;99.90
24224;DHT22;12359;49.716;9.212;2023-06-14T13:08:50;27.70;99.90
24224;DHT22;12359;49.716;9.212;2023-06-14T13:11:16;28.00;99.90
24224;DHT22;12359;49.716;9.212;2023-06-14T13:13:42;28.10;99.90
24224;DHT22;12359;49.716;9.212;2023-06-14T13:16:07;28.00;99.90
24224;DHT22;12359;49.716;9.212;2023-06-14T13:18:33;27.80;99.90
24224;DHT22;12359;49.716;9.212;2023-06-14T13:20:59;27.70;99.90
24224;DHT22;12359;49.716;9.212;2023-06-14T13:23:25;28.00;99.90
24224;DHT22;12359;49.716;9.212;2023-06-14T13:25:50;28.30;99.90
24224;DHT22;12359;49.716;9.212;2023-06-14T13:28:16;28.40;99.90
24224;DHT22;12359;49.716;9.212;2023-06-14T13:30:42;28.50;99.90
24224;DHT22;12359;49.716;9.212;2023-06-14T13:33:08;28.60;99.90
24224;DHT22;12359;49.716;9.212;2023-06-14T13:35:34;28.10;99.90
24224;DHT22;12359;49.716;9.212;2023-06-14T13:38:00;27.60;99.90
24224;DHT22;12359;49.716;9.212;2023-06-14T13:40:26;27.30;99.90
24224;DHT22;12359;49.716;9.212;2023-06-14T13:42:52;27.00;99.90
24224;DHT22;12359;49.716;9.212;2023-06-14T13:45:17;26.70;99.90
24224;DHT22;12359;49.716;9.212;2023-06-14T13:47:43;26.20;99.90
24224;DHT22;12359;49.716;9.212;2023-06-14T13:50:10;26.00;99.90
24224;DHT22;12359;49.716;9.212;2023-06-14T13:52:35;26.20;99.90
24224;DHT22;12359;49.716;9.212;2023-06-14T13:55:01;26.60;99.90
24224;DHT22;12359;49.716;9.212;2023-06-14T13:57:27;26.80;99.90
24224;DHT22;12359;49.716;9.212;2023-06-14T13:59:53;26.80;99.90
24224;DHT22;12359;49.716;9.212;2023-06-14T14:02:21;26.50;99.90
24224;DHT22;12359;49.716;9.212;2023-06-14T14:04:46;26.40;99.90
24224;DHT22;12359;49.716;9.212;2023-06-14T14:07:18;26.50;99.90
24224;DHT22;12359;49.716;9.212;2023-06-14T14:09:45;26.70;99.90
24224;DHT22;12359;49.716;9.212;2023-06-14T14:12:11;27.00;99.90
24224;DHT22;12359;49.716;9.212;2023-06-14T14:14:37;27.30;99.90
24224;DHT22;12359;49.716;9.212;2023-06-14T14:17:03;27.50;99.90
24224;DHT22;12359;49.716;9.212;2023-06-14T14:19:29;27.60;99.90
24224;DHT22;12359;49.716;9.212;2023-06-14T14:21:55;27.40;99.90
24224;DHT22;12359;49.716;9.212;2023-06-14T14:24:21;27.40;99.90
24224;DHT22;12359;49.716;9.212;2023-06-14T14:26:46;27.00;99.90
24224;DHT22;12359;49.716;9.212;2023-06-14T14:29:19;26.70;99.90
24224;DHT22;12359;49.716;9.212;2023-06-14T14:31:45;26.40;99.90
24224;DHT22;12359;49.716;9.212;2023-06-14T14:34:12;26.00;99.90
24224;DHT22;12359;49.716;9.212;2023-06-14T14:36:37;25.90;99.90
24224;DHT22;12359;49.716;9.212;2023-06-14T14:39:08;25.80;99.90
24224;DHT22;12359;49.716;9.212;2023-06-14T14:41:33;25.80;99.90
24224;DHT22;12359;49.716;9.212;2023-06-14T14:43:59;26.00;99.90
24224;DHT22;12359;49.716;9.212;2023-06-14T14:46:27;26.40;99.90
24224;DHT22;12359;49.716;9.212;2023-06-14T14:48:53;26.80;99.90
24224;DHT22;12359;49.716;9.212;2023-06-14T14:51:19;27.00;99.90
24224;DHT22;12359;49.716;9.212;2023-06-14T14:53:44;27.30;99.90
24224;DHT22;12359;49.716;9.212;2023-06-14T14:56:10;27.40;99.90
24224;DHT22;12359;49.716;9.212;2023-06-14T14:58:37;27.30;99.90
24224;DHT22;12359;49.716;9.212;2023-06-14T15:01:03;27.30;99.90
24224;DHT22;12359;49.716;9.212;2023-06-14T15:03:31;27.40;99.90
24224;DHT22;12359;49.716;9.212;2023-06-14T15:05:57;27.50;99.90
24224;DHT22;12359;49.716;9.212;2023-06-14T15:08:22;27.50;99.90
24224;DHT22;12359;49.716;9.212;2023-06-14T15:10:48;27.10;99.90
24224;DHT22;12359;49.716;9.212;2023-06-14T15:13:14;26.70;99.90
24224;DHT22;12359;49.716;9.212;2023-06-14T15:15:40;26.50;99.90
24224;DHT22;12359;49.716;9.212;2023-06-14T15:18:05;26.20;99.90
24224;DHT22;12359;49.716;9.212;2023-06-14T15:20:31;25.90;99.90
24224;DHT22;12359;49.716;9.212;2023-06-14T15:22:57;25.70;99.90
24224;DHT22;12359;49.716;9.212;2023-06-14T15:25:27;25.40;99.90
24224;DHT22;12359;49.716;9.212;2023-06-14T15:27:52;25.40;99.90
24224;DHT22;12359;49.716;9.212;2023-06-14T15:30:19;25.40;99.90
24224;DHT22;12359;49.716;9.212;2023-06-14T15:32:44;25.40;99.90
24224;DHT22;12359;49.716;9.212;2023-06-14T15:35:10;25.30;99.90
24224;DHT22;12359;49.716;9.212;2023-06-14T15:37:37;25.10;99.90
24224;DHT22;12359;49.716;9.212;2023-06-14T15:40:04;25.20;99.90
24224;DHT22;12359;49.716;9.212;2023-06-14T15:42:30;25.20;99.90
24224;DHT22;12359;49.716;9.212;2023-06-14T15:44:55;25.30;99.90
24224;DHT22;12359;49.716;9.212;2023-06-14T15:47:21;25.40;99.90
24224;DHT22;12359;49.716;9.212;2023-06-14T15:49:47;25.50;99.90
24224;DHT22;12359;49.716;9.212;2023-06-14T15:52:12;25.70;99.90
24224;DHT22;12359;49.716;9.212;2023-06-14T15:54:38;25.80;99.90